sensor_id;sensor_type;location;lat;lon;timestamp;temperature;humidity
13091;DHT22;6611;52.604;13.438;2024-02-23T00:02:52;10.44;88.56
13091;DHT22;6611;52.604;13.438;2024-02-23T00:07:55;10.41;88.64
13091;DHT22;6611;52.604;13.438;2024-02-23T00:12:57;10.44;88.34
13091;DHT22;6611;52.604;13.438;2024-02-23T00:17:58;10.46;88.29
13091;DHT22;6611;52.604;13.438;2024-02-23T00:23:02;10.56;88.00
13091;DHT22;6611;52.604;13.438;2024-02-23T00:28:04;10.55;87.76
13091;DHT22;6611;52.604;13.438;2024-02-23T00:33:06;10.56;87.39
13091;DHT22;6611;52.604;13.438;2024-02-23T00:38:09;10.63;86.93
13091;DHT22;6611;52.604;13.438;2024-02-23T00:43:11;10.60;86.48
13091;DHT22;6611;52.604;13.438;2024-02-23T00:48:13;10.56;87.03
13091;DHT22;6611;52.604;13.438;2024-02-23T00:53:16;10.60;86.48
13091;DHT22;6611;52.604;13.438;2024-02-23T00:58:18;10.55;86.44
13091;DHT22;6611;52.604;13.438;2024-02-23T01:03:19;10.66;85.75
13091;DHT22;6611;52.604;13.438;2024-02-23T01:08:23;10.60;85.97
13091;DHT22;6611;52.604;13.438;2024-02-23T01:13:25;10.68;85.83
13091;DHT22;6611;52.604;13.438;2024-02-23T01:18:26;10.72;85.32
13091;DHT22;6611;52.604;13.438;2024-02-23T01:23:29;10.76;84.75
13091;DHT22;6611;52.604;13.438;2024-02-23T01:28:31;10.75;84.46
13091;DHT22;6611;52.604;13.438;2024-02-23T01:33:33;10.79;84.08
13091;DHT22;6611;52.604;13.438;2024-02-23T01:38:37;10.96;83.01
13091;DHT22;6611;52.604;13.438;2024-02-23T01:43:39;11.04;82.03
13091;DHT22;6611;52.604;13.438;2024-02-23T01:48:41;11.13;80.40
13091;DHT22;6611;52.604;13.438;2024-02-23T01:53:46;11.18;79.82
13091;DHT22;6611;52.604;13.438;2024-02-23T01:58:48;11.28;78.18
13091;DHT22;6611;52.604;13.438;2024-02-23T02:03:50;11.32;77.56
13091;DHT22;6611;52.604;13.438;2024-02-23T02:08:53;11.39;74.08
13091;DHT22;6611;52.604;13.438;2024-02-23T02:13:55;11.48;74.69
13091;DHT22;6611;52.604;13.438;2024-02-23T02:18:56;11.52;74.36
13091;DHT22;6611;52.604;13.438;2024-02-23T02:23:59;11.39;73.30
13091;DHT22;6611;52.604;13.438;2024-02-23T02:29:01;11.35;72.11
13091;DHT22;6611;52.604;13.438;2024-02-23T02:34:04;11.28;71.09
13091;DHT22;6611;52.604;13.438;2024-02-23T02:39:07;11.17;66.58
13091;DHT22;6611;52.604;13.438;2024-02-23T02:44:08;11.01;63.58
13091;DHT22;6611;52.604;13.438;2024-02-23T02:49:10;10.94;62.46
13091;DHT22;6611;52.604;13.438;2024-02-23T02:54:13;10.83;61.92
13091;DHT22;6611;52.604;13.438;2024-02-23T02:59:15;10.77;62.15
13091;DHT22;6611;52.604;13.438;2024-02-23T03:04:18;10.60;62.81
13091;DHT22;6611;52.604;13.438;2024-02-23T03:09:21;10.51;62.33
13091;DHT22;6611;52.604;13.438;2024-02-23T03:14:23;10.48;62.50
13091;DHT22;6611;52.604;13.438;2024-02-23T03:19:25;10.42;62.37
13091;DHT22;6611;52.604;13.438;2024-02-23T03:24:28;10.27;64.39
13091;DHT22;6611;52.604;13.438;2024-02-23T03:29:30;10.24;63.06
13091;DHT22;6611;52.604;13.438;2024-02-23T03:34:32;10.20;63.17
13091;DHT22;6611;52.604;13.438;2024-02-23T03:39:35;10.14;62.30
13091;DHT22;6611;52.604;13.438;2024-02-23T03:44:37;10.10;62.20
13091;DHT22;6611;52.604;13.438;2024-02-23T03:49:39;10.08;60.95
13091;DHT22;6611;52.604;13.438;2024-02-23T03:54:42;10.06;62.17
13091;DHT22;6611;52.604;13.438;2024-02-23T03:59:51;9.98;61.14
13091;DHT22;6611;52.604;13.438;2024-02-23T04:04:53;10.03;60.99
13091;DHT22;6611;52.604;13.438;2024-02-23T04:09:56;9.93;62.02
13091;DHT22;6611;52.604;13.438;2024-02-23T04:14:58;9.90;61.32
13091;DHT22;6611;52.604;13.438;2024-02-23T04:20:00;9.96;60.76
13091;DHT22;6611;52.604;13.438;2024-02-23T04:25:08;9.87;61.30
13091;DHT22;6611;52.604;13.438;2024-02-23T04:30:11;9.86;60.60
13091;DHT22;6611;52.604;13.438;2024-02-23T04:35:13;9.86;60.85
13091;DHT22;6611;52.604;13.438;2024-02-23T04:40:16;9.76;61.72
13091;DHT22;6611;52.604;13.438;2024-02-23T04:45:18;9.78;60.20
13091;DHT22;6611;52.604;13.438;2024-02-23T04:50:19;9.76;60.02
13091;DHT22;6611;52.604;13.438;2024-02-23T04:55:22;9.63;61.02
13091;DHT22;6611;52.604;13.438;2024-02-23T05:00:24;9.61;60.20
13091;DHT22;6611;52.604;13.438;2024-02-23T05:05:33;9.49;60.68
13091;DHT22;6611;52.604;13.438;2024-02-23T05:10:36;9.45;59.74
13091;DHT22;6611;52.604;13.438;2024-02-23T05:15:37;9.37;59.71
13091;DHT22;6611;52.604;13.438;2024-02-23T05:20:39;9.26;57.90
13091;DHT22;6611;52.604;13.438;2024-02-23T05:25:43;9.14;58.50
13091;DHT22;6611;52.604;13.438;2024-02-23T05:30:44;9.01;58.91
13091;DHT22;6611;52.604;13.438;2024-02-23T05:35:46;9.00;59.78
13091;DHT22;6611;52.604;13.438;2024-02-23T05:40:50;8.87;60.22
13091;DHT22;6611;52.604;13.438;2024-02-23T05:45:52;8.86;60.16
13091;DHT22;6611;52.604;13.438;2024-02-23T05:50:54;8.77;60.95
13091;DHT22;6611;52.604;13.438;2024-02-23T05:55:57;8.62;62.55
13091;DHT22;6611;52.604;13.438;2024-02-23T06:00:59;8.51;62.24
13091;DHT22;6611;52.604;13.438;2024-02-23T06:06:00;8.40;62.58
13091;DHT22;6611;52.604;13.438;2024-02-23T06:11:03;8.44;62.75
13091;DHT22;6611;52.604;13.438;2024-02-23T06:16:09;8.42;62.98
13091;DHT22;6611;52.604;13.438;2024-02-23T06:21:12;8.33;62.40
13091;DHT22;6611;52.604;13.438;2024-02-23T06:26:16;8.27;63.73
13091;DHT22;6611;52.604;13.438;2024-02-23T06:31:17;8.66;64.39
13091;DHT22;6611;52.604;13.438;2024-02-23T06:36:19;8.61;61.96
13091;DHT22;6611;52.604;13.438;2024-02-23T06:41:22;8.47;62.13
13091;DHT22;6611;52.604;13.438;2024-02-23T06:46:24;8.37;63.03
13091;DHT22;6611;52.604;13.438;2024-02-23T06:51:25;8.40;63.53
13091;DHT22;6611;52.604;13.438;2024-02-23T06:56:28;8.36;63.94
13091;DHT22;6611;52.604;13.438;2024-02-23T07:01:30;8.51;64.19
13091;DHT22;6611;52.604;13.438;2024-02-23T07:06:34;8.59;62.39
13091;DHT22;6611;52.604;13.438;2024-02-23T07:11:38;8.69;63.30
13091;DHT22;6611;52.604;13.438;2024-02-23T07:16:41;8.75;62.40
13091;DHT22;6611;52.604;13.438;2024-02-23T07:21:43;8.71;62.66
13091;DHT22;6611;52.604;13.438;2024-02-23T07:26:46;8.79;62.19
13091;DHT22;6611;52.604;13.438;2024-02-23T07:31:48;8.76;61.95
13091;DHT22;6611;52.604;13.438;2024-02-23T07:36:51;8.66;61.44
13091;DHT22;6611;52.604;13.438;2024-02-23T07:41:54;8.59;63.54
13091;DHT22;6611;52.604;13.438;2024-02-23T07:46:56;8.61;62.38
13091;DHT22;6611;52.604;13.438;2024-02-23T07:51:59;8.69;61.20
13091;DHT22;6611;52.604;13.438;2024-02-23T07:57:02;8.68;61.39
13091;DHT22;6611;52.604;13.438;2024-02-23T08:02:05;8.57;60.77
13091;DHT22;6611;52.604;13.438;2024-02-23T08:07:06;8.77;60.99
13091;DHT22;6611;52.604;13.438;2024-02-23T08:12:10;8.86;59.59
13091;DHT22;6611;52.604;13.438;2024-02-23T08:17:14;9.10;59.73
13091;DHT22;6611;52.604;13.438;2024-02-23T08:22:16;9.32;59.22
13091;DHT22;6611;52.604;13.438;2024-02-23T08:27:19;9.31;58.46
13091;DHT22;6611;52.604;13.438;2024-02-23T08:32:21;9.49;59.47
13091;DHT22;6611;52.604;13.438;2024-02-23T08:37:22;9.54;58.98
13091;DHT22;6611;52.604;13.438;2024-02-23T08:42:25;9.41;58.60
13091;DHT22;6611;52.604;13.438;2024-02-23T08:47:27;9.35;60.24
13091;DHT22;6611;52.604;13.438;2024-02-23T08:52:32;9.30;59.26
13091;DHT22;6611;52.604;13.438;2024-02-23T08:57:35;9.65;60.58
13091;DHT22;6611;52.604;13.438;2024-02-23T09:02:37;9.89;60.74
13091;DHT22;6611;52.604;13.438;2024-02-23T09:07:39;9.96;59.93
13091;DHT22;6611;52.604;13.438;2024-02-23T09:12:42;9.89;57.86
13091;DHT22;6611;52.604;13.438;2024-02-23T09:17:44;10.15;58.37
13091;DHT22;6611;52.604;13.438;2024-02-23T09:22:46;10.38;56.43
13091;DHT22;6611;52.604;13.438;2024-02-23T09:27:49;10.37;55.48
13091;DHT22;6611;52.604;13.438;2024-02-23T09:32:50;10.62;55.43
13091;DHT22;6611;52.604;13.438;2024-02-23T09:37:52;10.51;55.85
13091;DHT22;6611;52.604;13.438;2024-02-23T09:42:57;10.72;53.41
13091;DHT22;6611;52.604;13.438;2024-02-23T09:48:00;10.52;52.88
13091;DHT22;6611;52.604;13.438;2024-02-23T09:53:04;10.63;54.18
13091;DHT22;6611;52.604;13.438;2024-02-23T09:58:11;11.00;55.26
13091;DHT22;6611;52.604;13.438;2024-02-23T10:03:14;10.89;52.81
13091;DHT22;6611;52.604;13.438;2024-02-23T10:08:15;10.84;51.55
13091;DHT22;6611;52.604;13.438;2024-02-23T10:13:19;10.76;50.97
13091;DHT22;6611;52.604;13.438;2024-02-23T10:18:22;10.42;52.58
13091;DHT22;6611;52.604;13.438;2024-02-23T10:23:23;10.62;55.84
13091;DHT22;6611;52.604;13.438;2024-02-23T10:28:27;10.70;52.25
13091;DHT22;6611;52.604;13.438;2024-02-23T10:33:28;10.75;53.48
13091;DHT22;6611;52.604;13.438;2024-02-23T10:38:32;10.80;53.48
13091;DHT22;6611;52.604;13.438;2024-02-23T10:43:40;10.92;53.23
13091;DHT22;6611;52.604;13.438;2024-02-23T10:48:44;11.00;54.39
13091;DHT22;6611;52.604;13.438;2024-02-23T10:53:46;10.72;52.83
13091;DHT22;6611;52.604;13.438;2024-02-23T10:58:51;11.10;51.12
13091;DHT22;6611;52.604;13.438;2024-02-23T11:03:53;11.36;51.42
13091;DHT22;6611;52.604;13.438;2024-02-23T11:09:04;11.69;51.84
13091;DHT22;6611;52.604;13.438;2024-02-23T11:14:09;11.69;51.15
13091;DHT22;6611;52.604;13.438;2024-02-23T11:19:10;11.46;50.99
13091;DHT22;6611;52.604;13.438;2024-02-23T11:24:15;11.63;50.97
13091;DHT22;6611;52.604;13.438;2024-02-23T11:29:18;11.48;49.84
13091;DHT22;6611;52.604;13.438;2024-02-23T11:34:22;11.69;51.23
13091;DHT22;6611;52.604;13.438;2024-02-23T11:39:26;12.00;50.05
13091;DHT22;6611;52.604;13.438;2024-02-23T11:44:29;12.08;48.77
13091;DHT22;6611;52.604;13.438;2024-02-23T11:49:31;11.94;48.92
13091;DHT22;6611;52.604;13.438;2024-02-23T11:54:32;12.07;51.77
13091;DHT22;6611;52.604;13.438;2024-02-23T11:59:35;11.87;48.43
13091;DHT22;6611;52.604;13.438;2024-02-23T12:04:37;11.59;47.68
13091;DHT22;6611;52.604;13.438;2024-02-23T12:09:39;11.54;48.58
13091;DHT22;6611;52.604;13.438;2024-02-23T12:14:43;11.49;49.72
13091;DHT22;6611;52.604;13.438;2024-02-23T12:19:44;11.63;50.21
13091;DHT22;6611;52.604;13.438;2024-02-23T12:24:46;11.52;48.38
13091;DHT22;6611;52.604;13.438;2024-02-23T12:29:52;11.84;50.53
13091;DHT22;6611;52.604;13.438;2024-02-23T12:34:56;11.34;51.18
13091;DHT22;6611;52.604;13.438;2024-02-23T12:39:57;11.00;52.16
13091;DHT22;6611;52.604;13.438;2024-02-23T12:45:00;11.15;50.88
13091;DHT22;6611;52.604;13.438;2024-02-23T12:50:02;11.31;51.00
13091;DHT22;6611;52.604;13.438;2024-02-23T12:55:04;10.92;52.09
13091;DHT22;6611;52.604;13.438;2024-02-23T13:00:08;10.92;52.07
13091;DHT22;6611;52.604;13.438;2024-02-23T13:05:10;11.14;52.07
13091;DHT22;6611;52.604;13.438;2024-02-23T13:10:12;11.00;50.84
13091;DHT22;6611;52.604;13.438;2024-02-23T13:15:15;10.89;51.54
13091;DHT22;6611;52.604;13.438;2024-02-23T13:20:16;10.79;52.30
13091;DHT22;6611;52.604;13.438;2024-02-23T13:25:18;10.58;53.14
13091;DHT22;6611;52.604;13.438;2024-02-23T13:30:21;10.51;52.49
13091;DHT22;6611;52.604;13.438;2024-02-23T13:35:23;10.53;53.17
13091;DHT22;6611;52.604;13.438;2024-02-23T13:40:25;10.69;53.69
13091;DHT22;6611;52.604;13.438;2024-02-23T13:45:28;10.76;52.22
13091;DHT22;6611;52.604;13.438;2024-02-23T13:50:29;10.70;54.20
13091;DHT22;6611;52.604;13.438;2024-02-23T13:55:31;10.68;52.27
13091;DHT22;6611;52.604;13.438;2024-02-23T14:00:34;10.56;53.02
13091;DHT22;6611;52.604;13.438;2024-02-23T14:05:36;10.44;54.07
13091;DHT22;6611;52.604;13.438;2024-02-23T14:10:37;10.68;52.42
13091;DHT22;6611;52.604;13.438;2024-02-23T14:15:41;10.52;52.69
13091;DHT22;6611;52.604;13.438;2024-02-23T14:20:43;10.38;53.36
13091;DHT22;6611;52.604;13.438;2024-02-23T14:25:44;10.32;53.47
13091;DHT22;6611;52.604;13.438;2024-02-23T14:30:48;10.18;54.17
13091;DHT22;6611;52.604;13.438;2024-02-23T14:35:49;10.14;54.11
13091;DHT22;6611;52.604;13.438;2024-02-23T14:40:51;10.79;55.28
13091;DHT22;6611;52.604;13.438;2024-02-23T14:45:54;10.96;51.68
13091;DHT22;6611;52.604;13.438;2024-02-23T14:50:56;10.48;51.72
13091;DHT22;6611;52.604;13.438;2024-02-23T14:55:58;10.01;53.00
13091;DHT22;6611;52.604;13.438;2024-02-23T15:01:01;9.80;53.91
13091;DHT22;6611;52.604;13.438;2024-02-23T15:06:04;9.69;54.58
13091;DHT22;6611;52.604;13.438;2024-02-23T15:11:06;9.66;55.06
13091;DHT22;6611;52.604;13.438;2024-02-23T15:16:09;9.69;54.22
13091;DHT22;6611;52.604;13.438;2024-02-23T15:21:10;9.45;55.30
13091;DHT22;6611;52.604;13.438;2024-02-23T15:26:12;9.49;54.82
13091;DHT22;6611;52.604;13.438;2024-02-23T15:31:15;9.38;55.83
13091;DHT22;6611;52.604;13.438;2024-02-23T15:36:17;9.39;56.06
13091;DHT22;6611;52.604;13.438;2024-02-23T15:41:19;9.28;56.78
13091;DHT22;6611;52.604;13.438;2024-02-23T15:46:22;9.31;56.42
13091;DHT22;6611;52.604;13.438;2024-02-23T15:51:23;9.28;57.08
13091;DHT22;6611;52.604;13.438;2024-02-23T15:56:25;9.32;56.59
13091;DHT22;6611;52.604;13.438;2024-02-23T16:01:28;9.13;57.70
13091;DHT22;6611;52.604;13.438;2024-02-23T16:06:30;9.09;57.65
13091;DHT22;6611;52.604;13.438;2024-02-23T16:11:35;9.10;57.48
13091;DHT22;6611;52.604;13.438;2024-02-23T16:16:38;9.00;57.68
13091;DHT22;6611;52.604;13.438;2024-02-23T16:21:41;8.84;58.02
13091;DHT22;6611;52.604;13.438;2024-02-23T16:26:43;8.90;57.52
13091;DHT22;6611;52.604;13.438;2024-02-23T16:31:46;8.76;58.87
13091;DHT22;6611;52.604;13.438;2024-02-23T16:36:48;8.61;59.26
13091;DHT22;6611;52.604;13.438;2024-02-23T16:41:49;8.71;58.60
13091;DHT22;6611;52.604;13.438;2024-02-23T16:46:52;8.57;59.31
13091;DHT22;6611;52.604;13.438;2024-02-23T16:51:54;8.49;59.66
13091;DHT22;6611;52.604;13.438;2024-02-23T16:56:56;8.52;60.57
13091;DHT22;6611;52.604;13.438;2024-02-23T17:01:59;8.51;60.63
13091;DHT22;6611;52.604;13.438;2024-02-23T17:07:01;8.38;60.67
13091;DHT22;6611;52.604;13.438;2024-02-23T17:12:03;8.41;60.77
13091;DHT22;6611;52.604;13.438;2024-02-23T17:17:07;8.37;60.64
13091;DHT22;6611;52.604;13.438;2024-02-23T17:22:08;8.31;60.45
13091;DHT22;6611;52.604;13.438;2024-02-23T17:27:10;8.29;60.44
13091;DHT22;6611;52.604;13.438;2024-02-23T17:32:13;8.23;60.88
13091;DHT22;6611;52.604;13.438;2024-02-23T17:37:15;8.24;61.15
13091;DHT22;6611;52.604;13.438;2024-02-23T17:42:16;8.09;61.41
13091;DHT22;6611;52.604;13.438;2024-02-23T17:47:19;8.02;61.98
13091;DHT22;6611;52.604;13.438;2024-02-23T17:52:21;7.93;62.27
13091;DHT22;6611;52.604;13.438;2024-02-23T17:57:23;7.99;61.68
13091;DHT22;6611;52.604;13.438;2024-02-23T18:02:26;7.85;62.14
13091;DHT22;6611;52.604;13.438;2024-02-23T18:07:28;7.82;63.28
13091;DHT22;6611;52.604;13.438;2024-02-23T18:12:30;7.78;63.90
13091;DHT22;6611;52.604;13.438;2024-02-23T18:17:34;7.69;64.31
13091;DHT22;6611;52.604;13.438;2024-02-23T18:22:36;7.59;64.18
13091;DHT22;6611;52.604;13.438;2024-02-23T18:27:37;7.57;64.39
13091;DHT22;6611;52.604;13.438;2024-02-23T18:32:41;7.58;63.65
13091;DHT22;6611;52.604;13.438;2024-02-23T18:37:43;7.50;64.07
13091;DHT22;6611;52.604;13.438;2024-02-23T18:42:45;7.37;64.52
13091;DHT22;6611;52.604;13.438;2024-02-23T18:47:48;7.38;64.48
13091;DHT22;6611;52.604;13.438;2024-02-23T18:52:49;7.35;64.57
13091;DHT22;6611;52.604;13.438;2024-02-23T18:57:51;7.41;64.57
13091;DHT22;6611;52.604;13.438;2024-02-23T19:02:55;7.40;64.62
13091;DHT22;6611;52.604;13.438;2024-02-23T19:07:56;7.41;65.20
13091;DHT22;6611;52.604;13.438;2024-02-23T19:12:58;7.24;65.63
13091;DHT22;6611;52.604;13.438;2024-02-23T19:18:01;7.22;65.73
13091;DHT22;6611;52.604;13.438;2024-02-23T19:23:03;7.24;65.61
13091;DHT22;6611;52.604;13.438;2024-02-23T19:28:05;7.30;65.34
13091;DHT22;6611;52.604;13.438;2024-02-23T19:33:08;7.27;66.30
13091;DHT22;6611;52.604;13.438;2024-02-23T19:38:10;7.19;66.74
13091;DHT22;6611;52.604;13.438;2024-02-23T19:43:12;7.13;66.51
13091;DHT22;6611;52.604;13.438;2024-02-23T19:48:16;7.09;67.49
13091;DHT22;6611;52.604;13.438;2024-02-23T19:53:26;7.07;67.05
13091;DHT22;6611;52.604;13.438;2024-02-23T19:58:34;7.00;67.60
13091;DHT22;6611;52.604;13.438;2024-02-23T20:03:37;6.98;68.02
13091;DHT22;6611;52.604;13.438;2024-02-23T20:09:03;6.99;68.51
13091;DHT22;6611;52.604;13.438;2024-02-23T20:14:08;6.88;69.37
13091;DHT22;6611;52.604;13.438;2024-02-23T20:19:17;6.70;69.77
13091;DHT22;6611;52.604;13.438;2024-02-23T20:24:19;6.60;70.03
13091;DHT22;6611;52.604;13.438;2024-02-23T20:29:21;6.47;70.49
13091;DHT22;6611;52.604;13.438;2024-02-23T20:34:24;6.45;70.19
13091;DHT22;6611;52.604;13.438;2024-02-23T20:39:25;6.45;70.20
13091;DHT22;6611;52.604;13.438;2024-02-23T20:44:27;6.32;71.04
13091;DHT22;6611;52.604;13.438;2024-02-23T20:49:33;6.13;71.34
13091;DHT22;6611;52.604;13.438;2024-02-23T20:54:37;5.98;71.68
13091;DHT22;6611;52.604;13.438;2024-02-23T20:59:43;6.06;71.33
13091;DHT22;6611;52.604;13.438;2024-02-23T21:04:46;5.94;71.92
13091;DHT22;6611;52.604;13.438;2024-02-23T21:09:48;5.79;72.47
13091;DHT22;6611;52.604;13.438;2024-02-23T21:14:50;5.77;72.42
13091;DHT22;6611;52.604;13.438;2024-02-23T21:19:53;5.73;72.53
13091;DHT22;6611;52.604;13.438;2024-02-23T21:24:57;5.58;73.08
13091;DHT22;6611;52.604;13.438;2024-02-23T21:29:59;5.47;73.49
13091;DHT22;6611;52.604;13.438;2024-02-23T21:35:03;5.33;74.12
13091;DHT22;6611;52.604;13.438;2024-02-23T21:40:05;5.25;73.97
13091;DHT22;6611;52.604;13.438;2024-02-23T21:45:08;5.19;74.73
13091;DHT22;6611;52.604;13.438;2024-02-23T21:50:11;5.12;74.90
13091;DHT22;6611;52.604;13.438;2024-02-23T21:55:14;5.04;74.99
13091;DHT22;6611;52.604;13.438;2024-02-23T22:00:16;4.96;75.45
13091;DHT22;6611;52.604;13.438;2024-02-23T22:05:20;5.04;76.34
13091;DHT22;6611;52.604;13.438;2024-02-23T22:10:21;5.02;75.35
13091;DHT22;6611;52.604;13.438;2024-02-23T22:15:23;5.04;75.08
13091;DHT22;6611;52.604;13.438;2024-02-23T22:20:26;4.95;75.43
13091;DHT22;6611;52.604;13.438;2024-02-23T22:25:29;4.95;75.11
13091;DHT22;6611;52.604;13.438;2024-02-23T22:30:31;4.98;75.46
13091;DHT22;6611;52.604;13.438;2024-02-23T22:35:34;4.99;75.24
13091;DHT22;6611;52.604;13.438;2024-02-23T22:40:35;4.91;75.54
13091;DHT22;6611;52.604;13.438;2024-02-23T22:45:37;4.84;76.24
13091;DHT22;6611;52.604;13.438;2024-02-23T22:50:40;4.76;76.54
13091;DHT22;6611;52.604;13.438;2024-02-23T22:55:41;4.68;76.93
13091;DHT22;6611;52.604;13.438;2024-02-23T23:00:43;4.61;76.57
13091;DHT22;6611;52.604;13.438;2024-02-23T23:05:47;4.54;77.19
13091;DHT22;6611;52.604;13.438;2024-02-23T23:10:48;4.48;77.21
13091;DHT22;6611;52.604;13.438;2024-02-23T23:15:50;4.40;77.51
13091;DHT22;6611;52.604;13.438;2024-02-23T23:20:53;4.38;77.26
13091;DHT22;6611;52.604;13.438;2024-02-23T23:25:56;4.46;77.03
13091;DHT22;6611;52.604;13.438;2024-02-23T23:30:57;4.36;77.36
13091;DHT22;6611;52.604;13.438;2024-02-23T23:36:00;4.36;77.36
13091;DHT22;6611;52.604;13.438;2024-02-23T23:41:02;4.39;76.82
13091;DHT22;6611;52.604;13.438;2024-02-23T23:46:04;4.28;77.21
13091;DHT22;6611;52.604;13.438;2024-02-23T23:51:07;4.14;77.67
13091;DHT22;6611;52.604;13.438;2024-02-23T23:56:09;4.09;77.68
